In Rescue
 
Open Full Screen Window  High Contrast Mode
November 20, 2019 2:16 AM CST
Weather Information
Wind Direction
  ---
Wind Speed
  00 kt (0 mph)
Wind Gust
  00 kt (0 mph)
Altimeter
30.04 in
Visibility
10 SM
Temperature
04° C
39° F
Dewpoint
03° C
37° F
Humidity
93%
1hr Rain Fall
00.00 in.
24hr Rain Fall
00.05 in.
Sky Condition
Overcast @ 2,600 ft
MVFR

METAR K9MN 200816Z AUTO 00000KT 10SM OVC026 04/03 A3004 RMK AO1 T00400027

FAA Disclaimer: The data displayed is for advisory purposes only and is not to be used for flight planning or operations.